Time,TemperatureF,DewpointF,PressureIn,WindDirection,WindDirectionDegrees,WindSpeedMPH,WindSpeedGustMPH,Humidity,HourlyPrecipIn,Conditions,Clouds,dailyrainin,SoftwareType,DateUTC
2013-04-08 00:02:00,63.0,52.0,29.82,North,-999,-999.0,-999.0,66,-99.99,,,-99.99,,2013-04-08 05:02:00,
2013-04-08 00:12:00,63.0,52.0,29.82,North,-999,-999.0,-999.0,67,-99.99,,,-99.99,,2013-04-08 05:12:00,
2013-04-08 00:22:00,63.0,52.0,29.82,North,-999,-999.0,-999.0,67,-99.99,,,-99.99,,2013-04-08 05:22:00,
2013-04-08 00:32:00,63.0,52.0,29.82,North,-999,-999.0,-999.0,67,-99.99,,,-99.99,,2013-04-08 05:32:00,
2013-04-08 00:42:00,63.0,52.0,29.82,North,-999,-999.0,-999.0,68,-99.99,,,-99.99,,2013-04-08 05:42:00,
2013-04-08 00:52:00,63.0,52.0,29.82,North,-999,-999.0,-999.0,68,-99.99,,,-99.99,,2013-04-08 05:52:00,
2013-04-08 01:02:00,62.0,52.0,29.79,North,-999,-999.0,-999.0,69,-99.99,,,-99.99,,2013-04-08 06:02:00,
2013-04-08 01:12:00,62.0,52.0,29.79,North,-999,-999.0,-999.0,69,-99.99,,,-99.99,,2013-04-08 06:12:00,
2013-04-08 01:22:00,62.0,52.0,29.79,North,-999,-999.0,-999.0,69,-99.99,,,-99.99,,2013-04-08 06:22:00,
2013-04-08 01:30:00,62.0,53.0,29.77,North,-999,-999.0,-999.0,73,-99.99,,,-99.99,,2013-04-08 06:30:00,
2013-04-08 01:32:00,62.0,53.0,29.79,North,-999,-999.0,-999.0,72,-99.99,,,-99.99,,2013-04-08 06:32:00,
2013-04-08 01:42:00,62.0,53.0,29.79,North,-999,-999.0,-999.0,72,-99.99,,,-99.99,,2013-04-08 06:42:00,
2013-04-08 01:52:00,62.0,53.0,29.79,North,-999,-999.0,-999.0,72,-99.99,,,-99.99,,2013-04-08 06:52:00,
2013-04-08 02:02:00,62.0,53.0,29.78,North,-999,-999.0,-999.0,72,-99.99,,,-99.99,,2013-04-08 07:02:00,
2013-04-08 02:12:00,62.0,53.0,29.77,North,-999,-999.0,-999.0,73,-99.99,,,-99.99,,2013-04-08 07:12:00,
2013-04-08 02:20:00,60.0,52.0,29.78,North,-999,-999.0,-999.0,75,-99.99,,,-99.99,,2013-04-08 07:20:00,
2013-04-08 02:22:00,62.0,53.0,29.77,North,-999,-999.0,-999.0,73,-99.99,,,-99.99,,2013-04-08 07:22:00,
2013-04-08 02:42:00,61.0,53.0,29.78,North,-999,-999.0,-999.0,74,-99.99,,,-99.99,,2013-04-08 07:42:00,
2013-04-08 02:52:00,61.0,52.0,29.78,North,-999,-999.0,-999.0,74,-99.99,,,-99.99,,2013-04-08 07:52:00,
2013-04-08 03:02:00,60.0,52.0,29.78,North,-999,-999.0,-999.0,75,-99.99,,,-99.99,,2013-04-08 08:02:00,
2013-04-08 03:12:00,60.0,52.0,29.78,North,-999,-999.0,-999.0,75,-99.99,,,-99.99,,2013-04-08 08:12:00,
2013-04-08 03:42:00,60.0,52.0,29.76,North,-999,-999.0,-999.0,75,-99.99,,,-99.99,,2013-04-08 08:42:00,
2013-04-08 03:52:00,60.0,52.0,29.76,North,-999,-999.0,-999.0,75,-99.99,,,-99.99,,2013-04-08 08:52:00,
2013-04-08 04:02:00,60.0,52.0,29.75,North,-999,-999.0,-999.0,75,-99.99,,,-99.99,,2013-04-08 09:02:00,
2013-04-08 04:12:00,60.0,52.0,29.75,North,-999,-999.0,-999.0,75,-99.99,,,-99.99,,2013-04-08 09:12:00,
2013-04-08 04:22:00,60.0,52.0,29.75,North,-999,-999.0,-999.0,75,-99.99,,,-99.99,,2013-04-08 09:22:00,
2013-04-08 04:33:00,60.0,52.0,29.75,North,-999,-999.0,-999.0,76,-99.99,,,-99.99,,2013-04-08 09:33:00,
2013-04-08 04:43:00,59.0,52.0,29.75,North,-999,-999.0,-999.0,76,-99.99,,,-99.99,,2013-04-08 09:43:00,
2013-04-08 04:53:00,59.0,52.0,29.75,North,-999,-999.0,-999.0,76,-99.99,,,-99.99,,2013-04-08 09:53:00,
2013-04-08 05:03:00,59.0,51.0,29.75,North,-999,-999.0,-999.0,76,-99.99,,,-99.99,,2013-04-08 10:03:00,
2013-04-08 05:13:00,59.0,51.0,29.75,North,-999,-999.0,-999.0,76,-99.99,,,-99.99,,2013-04-08 10:13:00,
2013-04-08 05:23:00,59.0,51.0,29.75,North,-999,-999.0,-999.0,76,-99.99,,,-99.99,,2013-04-08 10:23:00,
2013-04-08 05:33:00,59.0,51.0,29.74,North,-999,-999.0,-999.0,76,-99.99,,,-99.99,,2013-04-08 10:33:00,
2013-04-08 05:42:00,59.0,51.0,29.74,North,-999,-999.0,-999.0,76,-99.99,,,-99.99,,2013-04-08 10:42:00,
2013-04-08 05:52:00,59.0,51.0,29.74,North,-999,-999.0,-999.0,76,-99.99,,,-99.99,,2013-04-08 10:52:00,
2013-04-08 06:02:00,60.0,52.0,29.75,North,-999,-999.0,-999.0,75,-99.99,,,-99.99,,2013-04-08 11:02:00,
2013-04-08 06:12:00,60.0,52.0,29.74,North,-999,-999.0,-999.0,74,-99.99,,,-99.99,,2013-04-08 11:12:00,
2013-04-08 06:22:00,60.0,52.0,29.74,North,-999,-999.0,-999.0,74,-99.99,,,-99.99,,2013-04-08 11:22:00,
2013-04-08 06:32:00,60.0,51.0,29.74,North,-999,-999.0,-999.0,73,-99.99,,,-99.99,,2013-04-08 11:32:00,
2013-04-08 06:42:00,60.0,51.0,29.75,North,-999,-999.0,-999.0,73,-99.99,,,-99.99,,2013-04-08 11:42:00,
2013-04-08 06:52:00,60.0,51.0,29.75,North,-999,-999.0,-999.0,73,-99.99,,,-99.99,,2013-04-08 11:52:00,
2013-04-08 07:03:00,60.0,51.0,29.75,North,-999,-999.0,-999.0,73,-99.99,,,-99.99,,2013-04-08 12:03:00,
2013-04-08 07:12:00,60.0,52.0,29.75,North,-999,-999.0,-999.0,73,-99.99,,,-99.99,,2013-04-08 12:12:00,
2013-04-08 07:23:00,60.0,52.0,29.75,North,-999,-999.0,-999.0,73,-99.99,,,-99.99,,2013-04-08 12:23:00,
2013-04-08 07:33:00,60.0,52.0,29.75,North,-999,-999.0,-999.0,73,-99.99,,,-99.99,,2013-04-08 12:33:00,
2013-04-08 07:42:00,60.0,52.0,29.75,North,-999,-999.0,-999.0,73,-99.99,,,-99.99,,2013-04-08 12:42:00,
2013-04-08 07:52:00,60.0,52.0,29.75,North,-999,-999.0,-999.0,73,-99.99,,,-99.99,,2013-04-08 12:52:00,
2013-04-08 08:03:00,61.0,52.0,29.75,North,-999,-999.0,-999.0,73,-99.99,,,-99.99,,2013-04-08 13:03:00,
2013-04-08 08:12:00,61.0,52.0,29.76,North,-999,-999.0,-999.0,73,-99.99,,,-99.99,,2013-04-08 13:12:00,
2013-04-08 08:22:00,61.0,52.0,29.76,North,-999,-999.0,-999.0,73,-99.99,,,-99.99,,2013-04-08 13:22:00,
2013-04-08 08:32:00,60.0,52.0,29.79,North,-999,-999.0,-999.0,74,-99.99,,,-99.99,,2013-04-08 13:32:00,
2013-04-08 08:42:00,60.0,52.0,29.78,North,-999,-999.0,-999.0,74,-99.99,,,-99.99,,2013-04-08 13:42:00,
2013-04-08 08:52:00,60.0,52.0,29.78,North,-999,-999.0,-999.0,74,-99.99,,,-99.99,,2013-04-08 13:52:00,
2013-04-08 09:00:00,65.0,54.0,29.79,North,-999,-999.0,-999.0,68,-99.99,,,-99.99,,2013-04-08 14:00:00,
2013-04-08 09:03:00,62.0,53.0,29.78,North,-999,-999.0,-999.0,72,-99.99,,,-99.99,,2013-04-08 14:03:00,
2013-04-08 09:12:00,63.0,53.0,29.78,North,-999,-999.0,-999.0,69,-99.99,,,-99.99,,2013-04-08 14:12:00,
2013-04-08 09:22:00,63.0,53.0,29.78,North,-999,-999.0,-999.0,69,-99.99,,,-99.99,,2013-04-08 14:22:00,
2013-04-08 09:32:00,65.0,54.0,29.78,North,-999,-999.0,-999.0,68,-99.99,,,-99.99,,2013-04-08 14:32:00,
2013-04-08 09:42:00,65.0,54.0,29.79,North,-999,-999.0,-999.0,68,-99.99,,,-99.99,,2013-04-08 14:42:00,
2013-04-08 09:52:00,65.0,54.0,29.79,North,-999,-999.0,-999.0,68,-99.99,,,-99.99,,2013-04-08 14:52:00,
2013-04-08 10:12:00,66.0,54.0,29.79,North,-999,-999.0,-999.0,66,-99.99,,,-99.99,,2013-04-08 15:12:00,
2013-04-08 10:22:00,66.0,54.0,29.79,North,-999,-999.0,-999.0,66,-99.99,,,-99.99,,2013-04-08 15:22:00,
2013-04-08 10:33:00,66.0,54.0,29.80,North,-999,-999.0,-999.0,65,-99.99,,,-99.99,,2013-04-08 15:33:00,
2013-04-08 10:43:00,66.0,54.0,29.80,North,-999,-999.0,-999.0,65,-99.99,,,-99.99,,2013-04-08 15:43:00,
2013-04-08 10:53:00,66.0,54.0,29.80,North,-999,-999.0,-999.0,65,-99.99,,,-99.99,,2013-04-08 15:53:00,
2013-04-08 11:03:00,68.0,54.0,29.81,North,-999,-999.0,-999.0,62,-99.99,,,-99.99,,2013-04-08 16:03:00,
2013-04-08 11:13:00,69.0,55.0,29.81,North,-999,-999.0,-999.0,61,-99.99,,,-99.99,,2013-04-08 16:13:00,
2013-04-08 11:23:00,69.0,55.0,29.81,North,-999,-999.0,-999.0,61,-99.99,,,-99.99,,2013-04-08 16:23:00,
2013-04-08 11:32:00,72.0,55.0,29.80,North,-999,-999.0,-999.0,55,-99.99,,,-99.99,,2013-04-08 16:32:00,
2013-04-08 11:42:00,72.0,55.0,29.80,North,-999,-999.0,-999.0,55,-99.99,,,-99.99,,2013-04-08 16:42:00,
2013-04-08 11:53:00,72.0,54.0,29.80,North,-999,-999.0,-999.0,52,-99.99,,,-99.99,,2013-04-08 16:53:00,
2013-04-08 12:00:00,73.0,55.0,29.79,North,-999,-999.0,-999.0,53,-99.99,,,-99.99,,2013-04-08 17:00:00,
2013-04-08 12:03:00,72.0,55.0,29.80,North,-999,-999.0,-999.0,54,-99.99,,,-99.99,,2013-04-08 17:03:00,
2013-04-08 12:12:00,72.0,54.0,29.80,North,-999,-999.0,-999.0,53,-99.99,,,-99.99,,2013-04-08 17:12:00,
2013-04-08 12:22:00,72.0,54.0,29.80,North,-999,-999.0,-999.0,53,-99.99,,,-99.99,,2013-04-08 17:22:00,
2013-04-08 12:32:00,73.0,54.0,29.79,North,-999,-999.0,-999.0,51,-99.99,,,-99.99,,2013-04-08 17:32:00,
2013-04-08 12:43:00,73.0,55.0,29.79,North,-999,-999.0,-999.0,53,-99.99,,,-99.99,,2013-04-08 17:43:00,
2013-04-08 12:52:00,73.0,55.0,29.79,North,-999,-999.0,-999.0,53,-99.99,,,-99.99,,2013-04-08 17:52:00,
2013-04-08 13:12:00,74.0,55.0,29.79,North,-999,-999.0,-999.0,51,-99.99,,,-99.99,,2013-04-08 18:12:00,
2013-04-08 13:23:00,74.0,55.0,29.79,North,-999,-999.0,-999.0,51,-99.99,,,-99.99,,2013-04-08 18:23:00,
2013-04-08 13:32:00,74.0,54.0,29.79,North,-999,-999.0,-999.0,51,-99.99,,,-99.99,,2013-04-08 18:32:00,
2013-04-08 13:42:00,74.0,56.0,29.78,North,-999,-999.0,-999.0,53,-99.99,,,-99.99,,2013-04-08 18:42:00,
2013-04-08 13:52:00,74.0,56.0,29.78,North,-999,-999.0,-999.0,53,-99.99,,,-99.99,,2013-04-08 18:52:00,
2013-04-08 14:02:00,76.0,54.0,29.78,North,-999,-999.0,-999.0,48,-99.99,,,-99.99,,2013-04-08 19:02:00,
2013-04-08 14:12:00,75.0,55.0,29.78,North,-999,-999.0,-999.0,50,-99.99,,,-99.99,,2013-04-08 19:12:00,
2013-04-08 14:23:00,75.0,55.0,29.78,North,-999,-999.0,-999.0,50,-99.99,,,-99.99,,2013-04-08 19:23:00,
2013-04-08 14:33:00,75.0,56.0,29.77,North,-999,-999.0,-999.0,51,-99.99,,,-99.99,,2013-04-08 19:33:00,
2013-04-08 14:42:00,75.0,55.0,29.77,North,-999,-999.0,-999.0,49,-99.99,,,-99.99,,2013-04-08 19:42:00,
2013-04-08 14:52:00,75.0,55.0,29.77,North,-999,-999.0,-999.0,49,-99.99,,,-99.99,,2013-04-08 19:52:00,
2013-04-08 15:02:00,75.0,55.0,29.76,North,-999,-999.0,-999.0,50,-99.99,,,-99.99,,2013-04-08 20:02:00,
2013-04-08 15:12:00,76.0,55.0,29.75,North,-999,-999.0,-999.0,49,-99.99,,,-99.99,,2013-04-08 20:12:00,
2013-04-08 15:22:00,76.0,55.0,29.75,North,-999,-999.0,-999.0,49,-99.99,,,-99.99,,2013-04-08 20:22:00,
2013-04-08 15:33:00,76.0,54.0,29.75,North,-999,-999.0,-999.0,48,-99.99,,,-99.99,,2013-04-08 20:33:00,
2013-04-08 15:43:00,75.0,55.0,29.75,North,-999,-999.0,-999.0,49,-99.99,,,-99.99,,2013-04-08 20:43:00,
2013-04-08 15:52:00,75.0,55.0,29.75,North,-999,-999.0,-999.0,49,-99.99,,,-99.99,,2013-04-08 20:52:00,
2013-04-08 16:02:00,74.0,55.0,29.75,North,-999,-999.0,-999.0,51,-99.99,,,-99.99,,2013-04-08 21:02:00,
2013-04-08 16:12:00,73.0,56.0,29.75,North,-999,-999.0,-999.0,54,-99.99,,,-99.99,,2013-04-08 21:12:00,
2013-04-08 16:22:00,73.0,56.0,29.75,North,-999,-999.0,-999.0,54,-99.99,,,-99.99,,2013-04-08 21:22:00,
2013-04-08 16:32:00,73.0,56.0,29.75,North,-999,-999.0,-999.0,56,-99.99,,,-99.99,,2013-04-08 21:32:00,
2013-04-08 16:43:00,72.0,56.0,29.75,North,-999,-999.0,-999.0,57,-99.99,,,-99.99,,2013-04-08 21:43:00,
2013-04-08 16:52:00,72.0,56.0,29.75,North,-999,-999.0,-999.0,57,-99.99,,,-99.99,,2013-04-08 21:52:00,
2013-04-08 17:03:00,72.0,56.0,29.75,North,-999,-999.0,-999.0,57,-99.99,,,-99.99,,2013-04-08 22:03:00,
2013-04-08 17:13:00,72.0,57.0,29.74,North,-999,-999.0,-999.0,58,-99.99,,,-99.99,,2013-04-08 22:13:00,
2013-04-08 17:23:00,72.0,57.0,29.74,North,-999,-999.0,-999.0,58,-99.99,,,-99.99,,2013-04-08 22:23:00,
2013-04-08 17:32:00,72.0,56.0,29.75,North,-999,-999.0,-999.0,57,-99.99,,,-99.99,,2013-04-08 22:32:00,
2013-04-08 17:43:00,72.0,57.0,29.75,North,-999,-999.0,-999.0,58,-99.99,,,-99.99,,2013-04-08 22:43:00,
2013-04-08 17:52:00,72.0,57.0,29.75,North,-999,-999.0,-999.0,58,-99.99,,,-99.99,,2013-04-08 22:52:00,
2013-04-08 18:02:00,72.0,56.0,29.74,North,-999,-999.0,-999.0,57,-99.99,,,-99.99,,2013-04-08 23:02:00,
2013-04-08 18:12:00,72.0,57.0,29.74,North,-999,-999.0,-999.0,58,-99.99,,,-99.99,,2013-04-08 23:12:00,
2013-04-08 18:22:00,72.0,57.0,29.74,North,-999,-999.0,-999.0,58,-99.99,,,-99.99,,2013-04-08 23:22:00,
2013-04-08 18:32:00,72.0,57.0,29.75,North,-999,-999.0,-999.0,58,-99.99,,,-99.99,,2013-04-08 23:32:00,
2013-04-08 18:43:00,72.0,57.0,29.75,North,-999,-999.0,-999.0,59,-99.99,,,-99.99,,2013-04-08 23:43:00,
2013-04-08 18:52:00,72.0,57.0,29.75,North,-999,-999.0,-999.0,59,-99.99,,,-99.99,,2013-04-08 23:52:00,
2013-04-08 19:02:00,71.0,57.0,29.76,North,-999,-999.0,-999.0,61,-99.99,,,-99.99,,2013-04-09 00:02:00,
2013-04-08 19:12:00,70.0,57.0,29.77,North,-999,-999.0,-999.0,62,-99.99,,,-99.99,,2013-04-09 00:12:00,
2013-04-08 19:22:00,70.0,57.0,29.77,North,-999,-999.0,-999.0,62,-99.99,,,-99.99,,2013-04-09 00:22:00,
2013-04-08 19:32:00,69.0,56.0,29.78,North,-999,-999.0,-999.0,64,-99.99,,,-99.99,,2013-04-09 00:32:00,
2013-04-08 19:42:00,68.0,56.0,29.78,North,-999,-999.0,-999.0,64,-99.99,,,-99.99,,2013-04-09 00:42:00,
2013-04-08 19:52:00,68.0,56.0,29.78,North,-999,-999.0,-999.0,64,-99.99,,,-99.99,,2013-04-09 00:52:00,
2013-04-08 20:02:00,68.0,56.0,29.78,North,-999,-999.0,-999.0,65,-99.99,,,-99.99,,2013-04-09 01:02:00,
2013-04-08 20:12:00,68.0,55.0,29.78,North,-999,-999.0,-999.0,65,-99.99,,,-99.99,,2013-04-09 01:12:00,
2013-04-08 20:22:00,68.0,55.0,29.78,North,-999,-999.0,-999.0,65,-99.99,,,-99.99,,2013-04-09 01:22:00,
2013-04-08 20:33:00,67.0,55.0,29.78,North,-999,-999.0,-999.0,65,-99.99,,,-99.99,,2013-04-09 01:33:00,
2013-04-08 20:42:00,67.0,55.0,29.79,North,-999,-999.0,-999.0,66,-99.99,,,-99.99,,2013-04-09 01:42:00,
2013-04-08 20:52:00,67.0,55.0,29.79,North,-999,-999.0,-999.0,66,-99.99,,,-99.99,,2013-04-09 01:52:00,
2013-04-08 21:02:00,67.0,55.0,29.79,North,-999,-999.0,-999.0,66,-99.99,,,-99.99,,2013-04-09 02:02:00,
2013-04-08 21:13:00,67.0,55.0,29.79,North,-999,-999.0,-999.0,66,-99.99,,,-99.99,,2013-04-09 02:13:00,
2013-04-08 21:22:00,67.0,55.0,29.79,North,-999,-999.0,-999.0,66,-99.99,,,-99.99,,2013-04-09 02:22:00,
2013-04-08 21:33:00,66.0,55.0,29.79,North,-999,-999.0,-999.0,67,-99.99,,,-99.99,,2013-04-09 02:33:00,
2013-04-08 21:43:00,66.0,55.0,29.79,North,-999,-999.0,-999.0,68,-99.99,,,-99.99,,2013-04-09 02:43:00,
2013-04-08 21:52:00,66.0,55.0,29.79,North,-999,-999.0,-999.0,68,-99.99,,,-99.99,,2013-04-09 02:52:00,
2013-04-08 22:02:00,65.0,55.0,29.79,North,-999,-999.0,-999.0,69,-99.99,,,-99.99,,2013-04-09 03:02:00,
2013-04-08 22:12:00,65.0,54.0,29.80,North,-999,-999.0,-999.0,69,-99.99,,,-99.99,,2013-04-09 03:12:00,
2013-04-08 22:21:00,65.0,54.0,29.80,North,-999,-999.0,-999.0,69,-99.99,,,-99.99,,2013-04-09 03:21:00,
2013-04-08 22:33:00,65.0,55.0,29.80,North,-999,-999.0,-999.0,70,-99.99,,,-99.99,,2013-04-09 03:33:00,
2013-04-08 22:43:00,65.0,55.0,29.80,North,-999,-999.0,-999.0,70,-99.99,,,-99.99,,2013-04-09 03:43:00,
2013-04-08 22:52:00,65.0,55.0,29.80,North,-999,-999.0,-999.0,70,-99.99,,,-99.99,,2013-04-09 03:52:00,
2013-04-08 23:00:00,65.0,55.0,29.80,North,-999,-999.0,-999.0,71,-99.99,,,-99.99,,2013-04-09 04:00:00,
2013-04-08 23:03:00,64.0,54.0,29.79,North,-999,-999.0,-999.0,70,-99.99,,,-99.99,,2013-04-09 04:03:00,
2013-04-08 23:13:00,64.0,55.0,29.79,North,-999,-999.0,-999.0,71,-99.99,,,-99.99,,2013-04-09 04:13:00,
2013-04-08 23:23:00,64.0,55.0,29.79,North,-999,-999.0,-999.0,71,-99.99,,,-99.99,,2013-04-09 04:23:00,
2013-04-08 23:32:00,65.0,55.0,29.80,North,-999,-999.0,-999.0,71,-99.99,,,-99.99,,2013-04-09 04:32:00,
2013-04-08 23:42:00,65.0,55.0,29.80,North,-999,-999.0,-999.0,71,-99.99,,,-99.99,,2013-04-09 04:42:00,
2013-04-08 23:52:00,65.0,55.0,29.80,North,-999,-999.0,-999.0,71,-99.99,,,-99.99,,2013-04-09 04:52:00,